sensor_id;sensor_type;location;lat;lon;timestamp;pressure;altitude;pressure_sealevel;temperature
79172;BMP280;68597;53.238;-1.418;2023-04-16T00:00:00;101691.66;;;8.89
79172;BMP280;68597;53.238;-1.418;2023-04-16T00:02:25;101694.19;;;8.87
79172;BMP280;68597;53.238;-1.418;2023-04-16T00:04:51;101687.56;;;8.85
79172;BMP280;68597;53.238;-1.418;2023-04-16T00:07:18;101689.78;;;8.81
79172;BMP280;68597;53.238;-1.418;2023-04-16T00:09:43;101683.97;;;8.79
79172;BMP280;68597;53.238;-1.418;2023-04-16T00:12:09;101688.47;;;8.76
79172;BMP280;68597;53.238;-1.418;2023-04-16T00:14:34;101691.75;;;8.75
79172;BMP280;68597;53.238;-1.418;2023-04-16T00:17:00;101690.72;;;8.72
79172;BMP280;68597;53.238;-1.418;2023-04-16T00:19:25;101680.22;;;8.62
79172;BMP280;68597;53.238;-1.418;2023-04-16T00:21:51;101677.97;;;8.66
79172;BMP280;68597;53.238;-1.418;2023-04-16T00:24:17;101683.75;;;8.62
79172;BMP280;68597;53.238;-1.418;2023-04-16T00:26:43;101682.22;;;8.61
79172;BMP280;68597;53.238;-1.418;2023-04-16T00:29:08;101680.69;;;8.60
79172;BMP280;68597;53.238;-1.418;2023-04-16T00:31:35;101679.16;;;8.59
79172;BMP280;68597;53.238;-1.418;2023-04-16T00:34:02;101676.09;;;8.57
79172;BMP280;68597;53.238;-1.418;2023-04-16T00:36:27;101681.66;;;8.57
79172;BMP280;68597;53.238;-1.418;2023-04-16T00:38:55;101687.22;;;8.57
79172;BMP280;68597;53.238;-1.418;2023-04-16T00:41:22;101686.00;;;8.58
79172;BMP280;68597;53.238;-1.418;2023-04-16T00:43:48;101684.75;;;8.59
79172;BMP280;68597;53.238;-1.418;2023-04-16T00:46:14;101687.78;;;8.61
79172;BMP280;68597;53.238;-1.418;2023-04-16T00:48:42;101682.22;;;8.61
79172;BMP280;68597;53.238;-1.418;2023-04-16T00:51:09;101679.69;;;8.63
79172;BMP280;68597;53.238;-1.418;2023-04-16T00:53:35;101675.66;;;8.64
79172;BMP280;68597;53.238;-1.418;2023-04-16T00:56:01;101672.88;;;8.64
79172;BMP280;68597;53.238;-1.418;2023-04-16T00:58:30;101669.84;;;8.62
79172;BMP280;68597;53.238;-1.418;2023-04-16T01:00:55;101678.44;;;8.64
79172;BMP280;68597;53.238;-1.418;2023-04-16T01:03:21;101656.53;;;8.52
79172;BMP280;68597;53.238;-1.418;2023-04-16T01:05:47;101669.31;;;8.64
79172;BMP280;68597;53.238;-1.418;2023-04-16T01:08:16;101673.19;;;8.66
79172;BMP280;68597;53.238;-1.418;2023-04-16T01:10:42;101671.63;;;8.65
79172;BMP280;68597;53.238;-1.418;2023-04-16T01:13:07;101677.22;;;8.65
79172;BMP280;68597;53.238;-1.418;2023-04-16T01:15:34;101672.63;;;8.62
79172;BMP280;68597;53.238;-1.418;2023-04-16T01:18:00;101672.63;;;8.62
79172;BMP280;68597;53.238;-1.418;2023-04-16T01:20:25;101676.66;;;8.61
79172;BMP280;68597;53.238;-1.418;2023-04-16T01:22:52;101673.59;;;8.59
79172;BMP280;68597;53.238;-1.418;2023-04-16T01:25:18;101681.66;;;8.57
79172;BMP280;68597;53.238;-1.418;2023-04-16T01:27:43;101674.59;;;8.56
79172;BMP280;68597;53.238;-1.418;2023-04-16T01:30:09;101672.28;;;8.55
79172;BMP280;68597;53.238;-1.418;2023-04-16T01:32:46;101662.03;;;8.46
79172;BMP280;68597;53.238;-1.418;2023-04-16T01:35:11;101677.06;;;8.54
79172;BMP280;68597;53.238;-1.418;2023-04-16T01:37:37;101669.97;;;8.53
79172;BMP280;68597;53.238;-1.418;2023-04-16T01:40:07;101662.34;;;8.48
79172;BMP280;68597;53.238;-1.418;2023-04-16T01:42:36;101678.31;;;8.53
79172;BMP280;68597;53.238;-1.418;2023-04-16T01:45:01;101678.63;;;8.55
79172;BMP280;68597;53.238;-1.418;2023-04-16T01:47:27;101663.44;;;8.56
79172;BMP280;68597;53.238;-1.418;2023-04-16T01:49:52;101663.44;;;8.56
79172;BMP280;68597;53.238;-1.418;2023-04-16T01:52:18;101665.72;;;8.58
79172;BMP280;68597;53.238;-1.418;2023-04-16T01:54:44;101665.25;;;8.59
79172;BMP280;68597;53.238;-1.418;2023-04-16T01:57:11;101641.03;;;8.45
79172;BMP280;68597;53.238;-1.418;2023-04-16T01:59:36;101667.06;;;8.62
79172;BMP280;68597;53.238;-1.418;2023-04-16T02:02:06;101658.97;;;8.64
79172;BMP280;68597;53.238;-1.418;2023-04-16T02:04:32;101660.22;;;8.63
79172;BMP280;68597;53.238;-1.418;2023-04-16T02:06:57;101660.50;;;8.65
79172;BMP280;68597;53.238;-1.418;2023-04-16T02:09:23;101663.00;;;8.63
79172;BMP280;68597;53.238;-1.418;2023-04-16T02:11:49;101660.50;;;8.65
79172;BMP280;68597;53.238;-1.418;2023-04-16T02:14:16;101660.50;;;8.65
79172;BMP280;68597;53.238;-1.418;2023-04-16T02:16:42;101654.94;;;8.65
79172;BMP280;68597;53.238;-1.418;2023-04-16T02:19:15;101645.34;;;8.66
79172;BMP280;68597;53.238;-1.418;2023-04-16T02:21:41;101646.88;;;8.67
79172;BMP280;68597;53.238;-1.418;2023-04-16T02:24:08;101645.03;;;8.64
79172;BMP280;68597;53.238;-1.418;2023-04-16T02:26:34;101645.84;;;8.70
79172;BMP280;68597;53.238;-1.418;2023-04-16T02:29:04;101648.94;;;8.72
79172;BMP280;68597;53.238;-1.418;2023-04-16T02:31:38;101647.38;;;8.71
79172;BMP280;68597;53.238;-1.418;2023-04-16T02:34:05;101644.91;;;8.73
79172;BMP280;68597;53.238;-1.418;2023-04-16T02:36:31;101628.63;;;8.66
79172;BMP280;68597;53.238;-1.418;2023-04-16T02:38:56;101628.63;;;8.66
79172;BMP280;68597;53.238;-1.418;2023-04-16T02:41:22;101637.34;;;8.79
79172;BMP280;68597;53.238;-1.418;2023-04-16T02:43:48;101625.97;;;8.77
79172;BMP280;68597;53.238;-1.418;2023-04-16T02:46:13;101633.09;;;8.84
79172;BMP280;68597;53.238;-1.418;2023-04-16T02:48:40;101636.19;;;8.86
79172;BMP280;68597;53.238;-1.418;2023-04-16T02:51:06;101626.06;;;8.88
79172;BMP280;68597;53.238;-1.418;2023-04-16T02:53:31;101615.91;;;8.85
79172;BMP280;68597;53.238;-1.418;2023-04-16T02:55:57;101622.56;;;8.93
79172;BMP280;68597;53.238;-1.418;2023-04-16T02:58:24;101624.38;;;8.96
79172;BMP280;68597;53.238;-1.418;2023-04-16T03:00:50;101601.00;;;8.88
79172;BMP280;68597;53.238;-1.418;2023-04-16T03:03:16;101614.03;;;9.03
79172;BMP280;68597;53.238;-1.418;2023-04-16T03:05:43;101616.84;;;9.03
79172;BMP280;68597;53.238;-1.418;2023-04-16T03:08:09;101620.66;;;9.05
79172;BMP280;68597;53.238;-1.418;2023-04-16T03:10:34;101621.97;;;9.10
79172;BMP280;68597;53.238;-1.418;2023-04-16T03:13:00;101617.88;;;9.11
79172;BMP280;68597;53.238;-1.418;2023-04-16T03:15:26;101626.06;;;9.14
79172;BMP280;68597;53.238;-1.418;2023-04-16T03:17:52;101616.94;;;9.14
79172;BMP280;68597;53.238;-1.418;2023-04-16T03:20:18;101625.56;;;9.16
79172;BMP280;68597;53.238;-1.418;2023-04-16T03:22:45;101623.03;;;9.18
79172;BMP280;68597;53.238;-1.418;2023-04-16T03:25:11;101620.00;;;9.16
79172;BMP280;68597;53.238;-1.418;2023-04-16T03:27:37;101615.94;;;9.17
79172;BMP280;68597;53.238;-1.418;2023-04-16T03:30:04;101624.34;;;9.22
79172;BMP280;68597;53.238;-1.418;2023-04-16T03:32:32;101618.28;;;9.24
79172;BMP280;68597;53.238;-1.418;2023-04-16T03:34:58;101623.84;;;9.24
79172;BMP280;68597;53.238;-1.418;2023-04-16T03:37:24;101618.56;;;9.26
79172;BMP280;68597;53.238;-1.418;2023-04-16T03:39:51;101615.78;;;9.26
79172;BMP280;68597;53.238;-1.418;2023-04-16T03:42:17;101616.03;;;9.28
79172;BMP280;68597;53.238;-1.418;2023-04-16T03:44:42;101614.75;;;9.29
79172;BMP280;68597;53.238;-1.418;2023-04-16T03:47:08;101609.47;;;9.31
79172;BMP280;68597;53.238;-1.418;2023-04-16T03:49:34;101592.19;;;9.27
79172;BMP280;68597;53.238;-1.418;2023-04-16T03:51:59;101608.72;;;9.36
79172;BMP280;68597;53.238;-1.418;2023-04-16T03:54:25;101608.25;;;9.37
79172;BMP280;68597;53.238;-1.418;2023-04-16T03:57:00;101597.56;;;9.36
79172;BMP280;68597;53.238;-1.418;2023-04-16T03:59:26;101600.94;;;9.40
79172;BMP280;68597;53.238;-1.418;2023-04-16T04:01:51;101597.63;;;9.41
79172;BMP280;68597;53.238;-1.418;2023-04-16T04:04:17;101597.84;;;9.38
79172;BMP280;68597;53.238;-1.418;2023-04-16T04:06:44;101605.03;;;9.44
79172;BMP280;68597;53.238;-1.418;2023-04-16T04:09:09;101584.19;;;9.40
79172;BMP280;68597;53.238;-1.418;2023-04-16T04:11:35;101597.94;;;9.49
79172;BMP280;68597;53.238;-1.418;2023-04-16T04:14:03;101593.91;;;9.50
79172;BMP280;68597;53.238;-1.418;2023-04-16T04:16:29;101595.44;;;9.51
79172;BMP280;68597;53.238;-1.418;2023-04-16T04:18:57;101602.53;;;9.52
79172;BMP280;68597;53.238;-1.418;2023-04-16T04:21:22;101604.06;;;9.53
79172;BMP280;68597;53.238;-1.418;2023-04-16T04:23:48;101604.81;;;9.54
79172;BMP280;68597;53.238;-1.418;2023-04-16T04:26:13;101601.25;;;9.53
79172;BMP280;68597;53.238;-1.418;2023-04-16T04:28:39;101600.75;;;9.55
79172;BMP280;68597;53.238;-1.418;2023-04-16T04:31:09;101597.47;;;9.56
79172;BMP280;68597;53.238;-1.418;2023-04-16T04:33:35;101596.22;;;9.57
79172;BMP280;68597;53.238;-1.418;2023-04-16T04:36:01;101599.00;;;9.57
79172;BMP280;68597;53.238;-1.418;2023-04-16T04:38:27;101600.81;;;9.60
79172;BMP280;68597;53.238;-1.418;2023-04-16T04:40:53;101588.63;;;9.58
79172;BMP280;68597;53.238;-1.418;2023-04-16T04:43:20;101595.50;;;9.62
79172;BMP280;68597;53.238;-1.418;2023-04-16T04:45:45;101581.28;;;9.60
79172;BMP280;68597;53.238;-1.418;2023-04-16T04:48:12;101593.22;;;9.66
79172;BMP280;68597;53.238;-1.418;2023-04-16T04:50:38;101591.97;;;9.67
79172;BMP280;68597;53.238;-1.418;2023-04-16T04:53:03;101586.94;;;9.71
79172;BMP280;68597;53.238;-1.418;2023-04-16T04:55:29;101588.19;;;9.70
79172;BMP280;68597;53.238;-1.418;2023-04-16T04:57:57;101593.03;;;9.75
79172;BMP280;68597;53.238;-1.418;2023-04-16T05:00:22;101593.28;;;9.77
79172;BMP280;68597;53.238;-1.418;2023-04-16T05:02:52;101600.41;;;9.78
79172;BMP280;68597;53.238;-1.418;2023-04-16T05:05:19;101604.72;;;9.79
79172;BMP280;68597;53.238;-1.418;2023-04-16T05:07:45;101597.09;;;9.74
79172;BMP280;68597;53.238;-1.418;2023-04-16T05:10:10;101601.66;;;9.77
79172;BMP280;68597;53.238;-1.418;2023-04-16T05:12:36;101602.66;;;9.74
79172;BMP280;68597;53.238;-1.418;2023-04-16T05:15:01;101605.44;;;9.74
79172;BMP280;68597;53.238;-1.418;2023-04-16T05:17:27;101606.69;;;9.73
79172;BMP280;68597;53.238;-1.418;2023-04-16T05:19:52;101602.38;;;9.72
79172;BMP280;68597;53.238;-1.418;2023-04-16T05:22:19;101598.09;;;9.71
79172;BMP280;68597;53.238;-1.418;2023-04-16T05:24:44;101602.38;;;9.72
79172;BMP280;68597;53.238;-1.418;2023-04-16T05:27:10;101606.69;;;9.73
79172;BMP280;68597;53.238;-1.418;2023-04-16T05:29:35;101608.25;;;9.74
79172;BMP280;68597;53.238;-1.418;2023-04-16T05:32:01;101615.34;;;9.75
79172;BMP280;68597;53.238;-1.418;2023-04-16T05:34:26;101612.06;;;9.77
79172;BMP280;68597;53.238;-1.418;2023-04-16T05:36:52;101614.34;;;9.78
79172;BMP280;68597;53.238;-1.418;2023-04-16T05:39:19;101613.09;;;9.79
79172;BMP280;68597;53.238;-1.418;2023-04-16T05:41:44;101613.88;;;9.80
79172;BMP280;68597;53.238;-1.418;2023-04-16T05:44:10;101620.22;;;9.80
79172;BMP280;68597;53.238;-1.418;2023-04-16T05:46:35;101626.00;;;9.82
79172;BMP280;68597;53.238;-1.418;2023-04-16T05:49:01;101626.78;;;9.83
79172;BMP280;68597;53.238;-1.418;2023-04-16T05:51:26;101635.44;;;9.85
79172;BMP280;68597;53.238;-1.418;2023-04-16T05:53:52;101631.41;;;9.86
79172;BMP280;68597;53.238;-1.418;2023-04-16T05:56:19;101629.63;;;9.88
79172;BMP280;68597;53.238;-1.418;2023-04-16T05:58:44;101634.97;;;9.92
79172;BMP280;68597;53.238;-1.418;2023-04-16T06:01:10;101637.28;;;9.93
79172;BMP280;68597;53.238;-1.418;2023-04-16T06:03:35;101632.19;;;9.92
79172;BMP280;68597;53.238;-1.418;2023-04-16T06:06:01;101631.47;;;9.97
79172;BMP280;68597;53.238;-1.418;2023-04-16T06:08:26;101628.13;;;9.87
79172;BMP280;68597;53.238;-1.418;2023-04-16T06:10:52;101648.72;;;10.01
79172;BMP280;68597;53.238;-1.418;2023-04-16T06:13:19;101653.53;;;10.01
79172;BMP280;68597;53.238;-1.418;2023-04-16T06:15:44;101656.59;;;10.03
79172;BMP280;68597;53.238;-1.418;2023-04-16T06:18:10;101653.81;;;10.03
79172;BMP280;68597;53.238;-1.418;2023-04-16T06:20:35;101658.13;;;10.04
79172;BMP280;68597;53.238;-1.418;2023-04-16T06:23:01;101655.63;;;10.06
79172;BMP280;68597;53.238;-1.418;2023-04-16T06:25:26;101659.66;;;10.05
79172;BMP280;68597;53.238;-1.418;2023-04-16T06:27:52;101660.69;;;10.13
79172;BMP280;68597;53.238;-1.418;2023-04-16T06:30:19;101658.94;;;10.15
79172;BMP280;68597;53.238;-1.418;2023-04-16T06:32:44;101661.47;;;10.19
79172;BMP280;68597;53.238;-1.418;2023-04-16T06:35:10;101662.25;;;10.25
79172;BMP280;68597;53.238;-1.418;2023-04-16T06:37:36;101657.50;;;10.31
79172;BMP280;68597;53.238;-1.418;2023-04-16T06:40:01;101661.34;;;10.39
79172;BMP280;68597;53.238;-1.418;2023-04-16T06:42:27;101662.41;;;10.47
79172;BMP280;68597;53.238;-1.418;2023-04-16T06:44:54;101669.78;;;10.61
79172;BMP280;68597;53.238;-1.418;2023-04-16T06:47:21;101666.25;;;10.72
79172;BMP280;68597;53.238;-1.418;2023-04-16T06:49:46;101672.13;;;10.79
79172;BMP280;68597;53.238;-1.418;2023-04-16T06:52:12;101670.38;;;10.87
79172;BMP280;68597;53.238;-1.418;2023-04-16T06:54:38;101676.97;;;10.95
79172;BMP280;68597;53.238;-1.418;2023-04-16T06:57:03;101680.03;;;11.03
79172;BMP280;68597;53.238;-1.418;2023-04-16T06:59:29;101676.22;;;11.12
79172;BMP280;68597;53.238;-1.418;2023-04-16T07:01:55;101686.91;;;11.19
79172;BMP280;68597;53.238;-1.418;2023-04-16T07:04:22;101693.53;;;11.27
79172;BMP280;68597;53.238;-1.418;2023-04-16T07:06:47;101689.44;;;11.28
79172;BMP280;68597;53.238;-1.418;2023-04-16T07:09:13;101671.16;;;11.27
79172;BMP280;68597;53.238;-1.418;2023-04-16T07:11:39;101692.03;;;11.48
79172;BMP280;68597;53.238;-1.418;2023-04-16T07:14:04;101698.59;;;11.67
79172;BMP280;68597;53.238;-1.418;2023-04-16T07:16:30;101679.50;;;11.77
79172;BMP280;68597;53.238;-1.418;2023-04-16T07:18:55;101672.34;;;11.92
79172;BMP280;68597;53.238;-1.418;2023-04-16T07:21:22;101692.41;;;12.13
79172;BMP280;68597;53.238;-1.418;2023-04-16T07:23:48;101699.72;;;12.22
79172;BMP280;68597;53.238;-1.418;2023-04-16T07:26:13;101699.47;;;12.20
79172;BMP280;68597;53.238;-1.418;2023-04-16T07:28:39;101697.47;;;12.15
79172;BMP280;68597;53.238;-1.418;2023-04-16T07:31:04;101682.22;;;12.04
79172;BMP280;68597;53.238;-1.418;2023-04-16T07:33:30;101700.53;;;12.11
79172;BMP280;68597;53.238;-1.418;2023-04-16T07:35:55;101701.00;;;12.15
79172;BMP280;68597;53.238;-1.418;2023-04-16T07:38:22;101695.41;;;12.21
79172;BMP280;68597;53.238;-1.418;2023-04-16T07:40:48;101713.19;;;12.29
79172;BMP280;68597;53.238;-1.418;2023-04-16T07:43:14;101711.16;;;12.35
79172;BMP280;68597;53.238;-1.418;2023-04-16T07:45:39;101717.97;;;12.45
79172;BMP280;68597;53.238;-1.418;2023-04-16T07:48:05;101719.22;;;12.55
79172;BMP280;68597;53.238;-1.418;2023-04-16T07:50:31;101706.94;;;12.58
79172;BMP280;68597;53.238;-1.418;2023-04-16T07:52:56;101719.16;;;12.66
79172;BMP280;68597;53.238;-1.418;2023-04-16T07:55:23;101713.53;;;12.66
79172;BMP280;68597;53.238;-1.418;2023-04-16T07:57:48;101704.66;;;12.56
79172;BMP280;68597;53.238;-1.418;2023-04-16T08:00:14;101714.31;;;12.67
79172;BMP280;68597;53.238;-1.418;2023-04-16T08:02:40;101715.31;;;12.69
79172;BMP280;68597;53.238;-1.418;2023-04-16T08:05:06;101719.34;;;12.74
79172;BMP280;68597;53.238;-1.418;2023-04-16T08:07:32;101712.44;;;12.80
79172;BMP280;68597;53.238;-1.418;2023-04-16T08:09:57;101717.50;;;12.87
79172;BMP280;68597;53.238;-1.418;2023-04-16T08:12:24;101722.19;;;13.03
79172;BMP280;68597;53.238;-1.418;2023-04-16T08:14:50;101722.84;;;13.21
79172;BMP280;68597;53.238;-1.418;2023-04-16T08:17:15;101724.78;;;13.37
79172;BMP280;68597;53.238;-1.418;2023-04-16T08:19:41;101723.56;;;13.56
79172;BMP280;68597;53.238;-1.418;2023-04-16T08:22:06;101715.22;;;13.75
79172;BMP280;68597;53.238;-1.418;2023-04-16T08:24:32;101723.88;;;14.01
79172;BMP280;68597;53.238;-1.418;2023-04-16T08:26:57;101712.75;;;14.14
79172;BMP280;68597;53.238;-1.418;2023-04-16T08:29:24;101712.47;;;14.37
79172;BMP280;68597;53.238;-1.418;2023-04-16T08:31:50;101714.59;;;14.49
79172;BMP280;68597;53.238;-1.418;2023-04-16T08:34:15;101723.03;;;14.49
79172;BMP280;68597;53.238;-1.418;2023-04-16T08:36:41;101729.50;;;14.44
79172;BMP280;68597;53.238;-1.418;2023-04-16T08:39:07;101705.72;;;14.27
79172;BMP280;68597;53.238;-1.418;2023-04-16T08:41:33;101728.88;;;14.33
79172;BMP280;68597;53.238;-1.418;2023-04-16T08:44:06;101722.91;;;14.17
79172;BMP280;68597;53.238;-1.418;2023-04-16T08:46:36;101728.84;;;14.14
79172;BMP280;68597;53.238;-1.418;2023-04-16T08:49:04;101725.78;;;14.12
79172;BMP280;68597;53.238;-1.418;2023-04-16T08:51:33;101722.03;;;14.09
79172;BMP280;68597;53.238;-1.418;2023-04-16T08:54:02;101729.94;;;14.05
79172;BMP280;68597;53.238;-1.418;2023-04-16T08:56:30;101735.06;;;14.07
79172;BMP280;68597;53.238;-1.418;2023-04-16T08:58:56;101722.34;;;14.00
79172;BMP280;68597;53.238;-1.418;2023-04-16T09:01:23;101717.50;;;14.01
79172;BMP280;68597;53.238;-1.418;2023-04-16T09:03:51;101729.75;;;14.03
79172;BMP280;68597;53.238;-1.418;2023-04-16T09:06:17;101733.00;;;14.07
79172;BMP280;68597;53.238;-1.418;2023-04-16T09:08:43;101731.72;;;14.08
79172;BMP280;68597;53.238;-1.418;2023-04-16T09:11:12;101734.63;;;14.03
79172;BMP280;68597;53.238;-1.418;2023-04-16T09:13:38;101740.50;;;13.99
79172;BMP280;68597;53.238;-1.418;2023-04-16T09:16:04;101731.88;;;13.97
79172;BMP280;68597;53.238;-1.418;2023-04-16T09:18:31;101736.41;;;14.00
79172;BMP280;68597;53.238;-1.418;2023-04-16T09:20:58;101737.69;;;13.99
79172;BMP280;68597;53.238;-1.418;2023-04-16T09:23:23;101736.41;;;14.00
79172;BMP280;68597;53.238;-1.418;2023-04-16T09:25:49;101708.56;;;13.78
79172;BMP280;68597;53.238;-1.418;2023-04-16T09:28:38;101743.63;;;13.96
79172;BMP280;68597;53.238;-1.418;2023-04-16T09:31:08;101748.41;;;14.01
79172;BMP280;68597;53.238;-1.418;2023-04-16T09:33:34;101754.22;;;14.08
79172;BMP280;68597;53.238;-1.418;2023-04-16T09:36:01;101752.34;;;14.11
79172;BMP280;68597;53.238;-1.418;2023-04-16T09:38:44;101748.59;;;14.08
79172;BMP280;68597;53.238;-1.418;2023-04-16T09:41:10;101759.25;;;14.15
79172;BMP280;68597;53.238;-1.418;2023-04-16T09:43:35;101759.00;;;14.13
79172;BMP280;68597;53.238;-1.418;2023-04-16T09:46:03;101763.16;;;14.07
79172;BMP280;68597;53.238;-1.418;2023-04-16T09:48:29;101754.34;;;13.97
79172;BMP280;68597;53.238;-1.418;2023-04-16T09:50:55;101761.56;;;13.87
79172;BMP280;68597;53.238;-1.418;2023-04-16T09:53:24;101768.25;;;13.84
79172;BMP280;68597;53.238;-1.418;2023-04-16T09:55:50;101760.34;;;13.83
79172;BMP280;68597;53.238;-1.418;2023-04-16T09:58:17;101759.13;;;13.78
79172;BMP280;68597;53.238;-1.418;2023-04-16T10:00:43;101746.28;;;13.58
79172;BMP280;68597;53.238;-1.418;2023-04-16T10:03:08;101729.72;;;13.55
79172;BMP280;68597;53.238;-1.418;2023-04-16T10:05:34;101756.06;;;13.76
79172;BMP280;68597;53.238;-1.418;2023-04-16T10:08:00;101773.47;;;13.69
79172;BMP280;68597;53.238;-1.418;2023-04-16T10:10:26;101770.78;;;13.58
79172;BMP280;68597;53.238;-1.418;2023-04-16T10:12:53;101763.22;;;13.47
79172;BMP280;68597;53.238;-1.418;2023-04-16T10:15:19;101780.63;;;13.40
79172;BMP280;68597;53.238;-1.418;2023-04-16T10:17:45;101770.53;;;13.26
79172;BMP280;68597;53.238;-1.418;2023-04-16T10:20:11;101777.47;;;13.20
79172;BMP280;68597;53.238;-1.418;2023-04-16T10:22:37;101778.78;;;13.13
79172;BMP280;68597;53.238;-1.418;2023-04-16T10:25:03;101773.94;;;13.14
79172;BMP280;68597;53.238;-1.418;2023-04-16T10:27:30;101776.69;;;13.19
79172;BMP280;68597;53.238;-1.418;2023-04-16T10:29:56;101770.78;;;13.23
79172;BMP280;68597;53.238;-1.418;2023-04-16T10:32:22;101773.53;;;13.34
79172;BMP280;68597;53.238;-1.418;2023-04-16T10:34:49;101775.78;;;13.41
79172;BMP280;68597;53.238;-1.418;2023-04-16T10:37:15;101776.22;;;13.45
79172;BMP280;68597;53.238;-1.418;2023-04-16T10:39:43;101768.41;;;13.38
79172;BMP280;68597;53.238;-1.418;2023-04-16T10:42:09;101778.31;;;13.39
79172;BMP280;68597;53.238;-1.418;2023-04-16T10:44:37;101787.84;;;13.30
79172;BMP280;68597;53.238;-1.418;2023-04-16T10:47:08;101783.53;;;13.24
79172;BMP280;68597;53.238;-1.418;2023-04-16T10:49:34;101796.03;;;13.23
79172;BMP280;68597;53.238;-1.418;2023-04-16T10:52:06;101782.00;;;13.23
79172;BMP280;68597;53.238;-1.418;2023-04-16T10:54:34;101797.09;;;13.20
79172;BMP280;68597;53.238;-1.418;2023-04-16T10:57:04;101791.75;;;13.16
79172;BMP280;68597;53.238;-1.418;2023-04-16T10:59:31;101788.47;;;13.12
79172;BMP280;68597;53.238;-1.418;2023-04-16T11:01:59;101791.00;;;13.10
79172;BMP280;68597;53.238;-1.418;2023-04-16T11:04:27;101794.38;;;13.08
79172;BMP280;68597;53.238;-1.418;2023-04-16T11:07:00;101791.78;;;13.10
79172;BMP280;68597;53.238;-1.418;2023-04-16T11:09:43;101792.31;;;13.15
79172;BMP280;68597;53.238;-1.418;2023-04-16T11:12:11;101794.59;;;13.10
79172;BMP280;68597;53.238;-1.418;2023-04-16T11:14:37;101788.50;;;13.06
79172;BMP280;68597;53.238;-1.418;2023-04-16T11:17:05;101786.72;;;13.03
79172;BMP280;68597;53.238;-1.418;2023-04-16T11:19:30;101786.69;;;13.15
79172;BMP280;68597;53.238;-1.418;2023-04-16T11:21:56;101787.16;;;13.19
79172;BMP280;68597;53.238;-1.418;2023-04-16T11:24:22;101778.97;;;13.21
79172;BMP280;68597;53.238;-1.418;2023-04-16T11:26:50;101761.72;;;13.05
79172;BMP280;68597;53.238;-1.418;2023-04-16T11:29:15;101764.44;;;13.17
79172;BMP280;68597;53.238;-1.418;2023-04-16T11:31:41;101788.59;;;13.31
79172;BMP280;68597;53.238;-1.418;2023-04-16T11:34:08;101789.63;;;13.28
79172;BMP280;68597;53.238;-1.418;2023-04-16T11:36:42;101786.66;;;13.20
79172;BMP280;68597;53.238;-1.418;2023-04-16T11:39:07;101796.03;;;13.23
79172;BMP280;68597;53.238;-1.418;2023-04-16T11:41:33;101795.31;;;13.17
79172;BMP280;68597;53.238;-1.418;2023-04-16T11:43:58;101798.91;;;13.11
79172;BMP280;68597;53.238;-1.418;2023-04-16T11:46:36;101789.22;;;13.13
79172;BMP280;68597;53.238;-1.418;2023-04-16T11:49:02;101791.78;;;13.10
79172;BMP280;68597;53.238;-1.418;2023-04-16T11:51:29;101782.63;;;13.04
79172;BMP280;68597;53.238;-1.418;2023-04-16T11:53:54;101782.94;;;13.01
79172;BMP280;68597;53.238;-1.418;2023-04-16T11:56:24;101780.16;;;12.95
79172;BMP280;68597;53.238;-1.418;2023-04-16T11:59:05;101780.94;;;12.96
79172;BMP280;68597;53.238;-1.418;2023-04-16T12:01:31;101783.19;;;12.97
79172;BMP280;68597;53.238;-1.418;2023-04-16T12:04:00;101779.16;;;12.93
79172;BMP280;68597;53.238;-1.418;2023-04-16T12:06:26;101778.91;;;12.91
79172;BMP280;68597;53.238;-1.418;2023-04-16T12:08:53;101772.03;;;12.86
79172;BMP280;68597;53.238;-1.418;2023-04-16T12:11:18;101771.78;;;12.90
79172;BMP280;68597;53.238;-1.418;2023-04-16T12:14:08;101766.34;;;12.97
79172;BMP280;68597;53.238;-1.418;2023-04-16T12:16:33;101767.66;;;13.02
79172;BMP280;68597;53.238;-1.418;2023-04-16T12:19:00;101762.22;;;13.09
79172;BMP280;68597;53.238;-1.418;2023-04-16T12:21:35;101768.31;;;13.14
79172;BMP280;68597;53.238;-1.418;2023-04-16T12:24:03;101769.34;;;13.10
79172;BMP280;68597;53.238;-1.418;2023-04-16T12:26:35;101772.41;;;13.13
79172;BMP280;68597;53.238;-1.418;2023-04-16T12:29:17;101772.88;;;13.17
79172;BMP280;68597;53.238;-1.418;2023-04-16T12:31:42;101772.31;;;13.24
79172;BMP280;68597;53.238;-1.418;2023-04-16T12:34:08;101768.72;;;13.29
79172;BMP280;68597;53.238;-1.418;2023-04-16T12:36:34;101775.06;;;13.29
79172;BMP280;68597;53.238;-1.418;2023-04-16T12:38:59;101773.28;;;13.32
79172;BMP280;68597;53.238;-1.418;2023-04-16T12:41:29;101774.81;;;13.33
79172;BMP280;68597;53.238;-1.418;2023-04-16T12:44:02;101770.22;;;13.30
79172;BMP280;68597;53.238;-1.418;2023-04-16T12:46:28;101783.47;;;13.35
79172;BMP280;68597;53.238;-1.418;2023-04-16T12:48:53;101775.56;;;13.33
79172;BMP280;68597;53.238;-1.418;2023-04-16T12:51:19;101786.03;;;13.33
79172;BMP280;68597;53.238;-1.418;2023-04-16T12:53:44;101782.22;;;13.30
79172;BMP280;68597;53.238;-1.418;2023-04-16T12:56:10;101777.38;;;13.31
79172;BMP280;68597;53.238;-1.418;2023-04-16T12:58:37;101782.50;;;13.27
79172;BMP280;68597;53.238;-1.418;2023-04-16T13:01:02;101773.09;;;13.24
79172;BMP280;68597;53.238;-1.418;2023-04-16T13:03:28;101781.00;;;13.26
79172;BMP280;68597;53.238;-1.418;2023-04-16T13:05:53;101781.00;;;13.26
79172;BMP280;68597;53.238;-1.418;2023-04-16T13:08:19;101763.13;;;13.29
79172;BMP280;68597;53.238;-1.418;2023-04-16T13:10:44;101777.88;;;13.35
79172;BMP280;68597;53.238;-1.418;2023-04-16T13:13:10;101779.56;;;13.43
79172;BMP280;68597;53.238;-1.418;2023-04-16T13:15:37;101767.31;;;13.46
79172;BMP280;68597;53.238;-1.418;2023-04-16T13:18:02;101773.38;;;13.50
79172;BMP280;68597;53.238;-1.418;2023-04-16T13:20:28;101788.91;;;13.57
79172;BMP280;68597;53.238;-1.418;2023-04-16T13:22:54;101785.84;;;13.55
79172;BMP280;68597;53.238;-1.418;2023-04-16T13:25:19;101789.97;;;13.54
79172;BMP280;68597;53.238;-1.418;2023-04-16T13:27:45;101790.47;;;13.52
79172;BMP280;68597;53.238;-1.418;2023-04-16T13:30:11;101791.25;;;13.53
79172;BMP280;68597;53.238;-1.418;2023-04-16T13:32:38;101783.59;;;13.53
79172;BMP280;68597;53.238;-1.418;2023-04-16T13:35:04;101786.84;;;13.57
79172;BMP280;68597;53.238;-1.418;2023-04-16T13:37:30;101788.59;;;13.66
79172;BMP280;68597;53.238;-1.418;2023-04-16T13:39:55;101777.31;;;13.72
79172;BMP280;68597;53.238;-1.418;2023-04-16T13:42:21;101785.94;;;13.79
79172;BMP280;68597;53.238;-1.418;2023-04-16T13:44:46;101783.56;;;13.83